sensor_id;sensor_type;location;lat;lon;timestamp;temperature;humidity
19435;DHT22;9853;50.848;4.108;2023-05-07T00:01:23;18.10;99.90
19435;DHT22;9853;50.848;4.108;2023-05-07T00:03:24;18.00;99.90
19435;DHT22;9853;50.848;4.108;2023-05-07T00:05:26;18.00;99.90
19435;DHT22;9853;50.848;4.108;2023-05-07T00:07:28;18.00;99.90
19435;DHT22;9853;50.848;4.108;2023-05-07T00:09:29;17.90;99.90
19435;DHT22;9853;50.848;4.108;2023-05-07T00:11:30;17.90;99.90
19435;DHT22;9853;50.848;4.108;2023-05-07T00:13:30;17.90;99.90
19435;DHT22;9853;50.848;4.108;2023-05-07T00:15:35;17.90;99.90
19435;DHT22;9853;50.848;4.108;2023-05-07T00:17:37;17.80;99.90
19435;DHT22;9853;50.848;4.108;2023-05-07T00:19:37;17.80;99.90
19435;DHT22;9853;50.848;4.108;2023-05-07T00:21:38;17.80;99.90
19435;DHT22;9853;50.848;4.108;2023-05-07T00:23:39;17.80;99.90
19435;DHT22;9853;50.848;4.108;2023-05-07T00:25:40;17.90;99.90
19435;DHT22;9853;50.848;4.108;2023-05-07T00:27:40;17.80;99.90
19435;DHT22;9853;50.848;4.108;2023-05-07T00:29:41;17.70;99.90
19435;DHT22;9853;50.848;4.108;2023-05-07T00:31:42;17.70;99.90
19435;DHT22;9853;50.848;4.108;2023-05-07T00:33:43;17.80;99.90
19435;DHT22;9853;50.848;4.108;2023-05-07T00:35:44;18.00;99.90
19435;DHT22;9853;50.848;4.108;2023-05-07T00:37:56;18.40;99.90
19435;DHT22;9853;50.848;4.108;2023-05-07T00:39:57;18.10;99.90
19435;DHT22;9853;50.848;4.108;2023-05-07T00:41:57;17.70;99.90
19435;DHT22;9853;50.848;4.108;2023-05-07T00:43:58;17.60;99.90
19435;DHT22;9853;50.848;4.108;2023-05-07T00:45:59;17.50;99.90
19435;DHT22;9853;50.848;4.108;2023-05-07T00:48:02;17.40;99.90
19435;DHT22;9853;50.848;4.108;2023-05-07T00:50:03;17.30;99.90
19435;DHT22;9853;50.848;4.108;2023-05-07T00:52:09;17.30;99.90
19435;DHT22;9853;50.848;4.108;2023-05-07T00:54:10;17.20;99.90
19435;DHT22;9853;50.848;4.108;2023-05-07T00:56:12;17.20;99.90
19435;DHT22;9853;50.848;4.108;2023-05-07T00:58:13;17.10;99.90
19435;DHT22;9853;50.848;4.108;2023-05-07T01:00:14;17.10;99.90
19435;DHT22;9853;50.848;4.108;2023-05-07T01:02:14;17.10;99.90
19435;DHT22;9853;50.848;4.108;2023-05-07T01:04:15;17.00;99.90
19435;DHT22;9853;50.848;4.108;2023-05-07T01:06:17;17.00;99.90
19435;DHT22;9853;50.848;4.108;2023-05-07T01:08:18;17.00;99.90
19435;DHT22;9853;50.848;4.108;2023-05-07T01:10:19;17.00;99.90
19435;DHT22;9853;50.848;4.108;2023-05-07T01:12:20;17.00;99.90
19435;DHT22;9853;50.848;4.108;2023-05-07T01:14:21;16.90;99.90
19435;DHT22;9853;50.848;4.108;2023-05-07T01:16:22;16.90;99.90
19435;DHT22;9853;50.848;4.108;2023-05-07T01:18:23;17.40;99.90
19435;DHT22;9853;50.848;4.108;2023-05-07T01:20:24;17.40;99.90
19435;DHT22;9853;50.848;4.108;2023-05-07T01:22:34;17.20;99.90
19435;DHT22;9853;50.848;4.108;2023-05-07T01:24:37;17.00;99.90
19435;DHT22;9853;50.848;4.108;2023-05-07T01:26:40;16.90;99.90
19435;DHT22;9853;50.848;4.108;2023-05-07T01:28:41;16.90;99.90
19435;DHT22;9853;50.848;4.108;2023-05-07T01:30:49;16.80;99.90
19435;DHT22;9853;50.848;4.108;2023-05-07T01:33:01;16.80;99.90
19435;DHT22;9853;50.848;4.108;2023-05-07T01:35:05;16.70;99.90
19435;DHT22;9853;50.848;4.108;2023-05-07T01:37:07;16.70;99.90
19435;DHT22;9853;50.848;4.108;2023-05-07T01:39:08;16.60;99.90
19435;DHT22;9853;50.848;4.108;2023-05-07T01:41:11;16.60;99.90
19435;DHT22;9853;50.848;4.108;2023-05-07T01:43:12;16.60;99.90
19435;DHT22;9853;50.848;4.108;2023-05-07T01:45:13;16.60;99.90
19435;DHT22;9853;50.848;4.108;2023-05-07T01:47:14;16.60;99.90
19435;DHT22;9853;50.848;4.108;2023-05-07T01:49:16;16.60;99.90
19435;DHT22;9853;50.848;4.108;2023-05-07T01:51:17;16.60;99.90
19435;DHT22;9853;50.848;4.108;2023-05-07T01:53:20;16.60;99.90
19435;DHT22;9853;50.848;4.108;2023-05-07T01:55:21;16.60;99.90
19435;DHT22;9853;50.848;4.108;2023-05-07T01:57:22;16.70;99.90
19435;DHT22;9853;50.848;4.108;2023-05-07T01:59:23;16.70;99.90
19435;DHT22;9853;50.848;4.108;2023-05-07T02:01:24;16.70;99.90
19435;DHT22;9853;50.848;4.108;2023-05-07T02:03:25;16.70;99.90
19435;DHT22;9853;50.848;4.108;2023-05-07T02:05:34;16.70;99.90
19435;DHT22;9853;50.848;4.108;2023-05-07T02:07:57;16.70;99.90
19435;DHT22;9853;50.848;4.108;2023-05-07T02:09:59;16.60;99.90
19435;DHT22;9853;50.848;4.108;2023-05-07T02:11:59;16.60;99.90
19435;DHT22;9853;50.848;4.108;2023-05-07T02:14:01;16.60;99.90
19435;DHT22;9853;50.848;4.108;2023-05-07T02:16:02;16.70;99.90
19435;DHT22;9853;50.848;4.108;2023-05-07T02:18:05;16.60;99.90
19435;DHT22;9853;50.848;4.108;2023-05-07T02:20:07;16.60;99.90
19435;DHT22;9853;50.848;4.108;2023-05-07T02:22:14;16.90;99.90
19435;DHT22;9853;50.848;4.108;2023-05-07T02:24:15;17.30;99.90
19435;DHT22;9853;50.848;4.108;2023-05-07T02:26:16;17.40;99.90
19435;DHT22;9853;50.848;4.108;2023-05-07T02:28:16;17.50;99.90
19435;DHT22;9853;50.848;4.108;2023-05-07T02:30:25;17.30;99.90
19435;DHT22;9853;50.848;4.108;2023-05-07T02:32:28;17.30;99.90
19435;DHT22;9853;50.848;4.108;2023-05-07T02:34:28;17.30;99.90
19435;DHT22;9853;50.848;4.108;2023-05-07T02:36:29;17.30;99.90
19435;DHT22;9853;50.848;4.108;2023-05-07T02:38:44;17.40;99.90
19435;DHT22;9853;50.848;4.108;2023-05-07T02:40:45;17.70;99.90
19435;DHT22;9853;50.848;4.108;2023-05-07T02:42:45;18.00;99.90
19435;DHT22;9853;50.848;4.108;2023-05-07T02:44:46;18.20;99.90
19435;DHT22;9853;50.848;4.108;2023-05-07T02:46:48;18.10;99.90
19435;DHT22;9853;50.848;4.108;2023-05-07T02:48:48;18.00;99.90
19435;DHT22;9853;50.848;4.108;2023-05-07T02:50:49;17.90;99.90
19435;DHT22;9853;50.848;4.108;2023-05-07T02:52:50;17.80;99.90
19435;DHT22;9853;50.848;4.108;2023-05-07T02:54:51;17.60;99.90
19435;DHT22;9853;50.848;4.108;2023-05-07T02:56:52;17.40;99.90
19435;DHT22;9853;50.848;4.108;2023-05-07T02:58:52;17.20;99.90
19435;DHT22;9853;50.848;4.108;2023-05-07T03:00:55;17.10;99.90
19435;DHT22;9853;50.848;4.108;2023-05-07T03:03:16;17.00;99.90
19435;DHT22;9853;50.848;4.108;2023-05-07T03:05:17;17.00;99.90
19435;DHT22;9853;50.848;4.108;2023-05-07T03:07:18;16.90;99.90
19435;DHT22;9853;50.848;4.108;2023-05-07T03:09:19;16.70;99.90
19435;DHT22;9853;50.848;4.108;2023-05-07T03:11:20;16.60;99.90
19435;DHT22;9853;50.848;4.108;2023-05-07T03:13:20;16.50;99.90
19435;DHT22;9853;50.848;4.108;2023-05-07T03:15:22;16.50;99.90
19435;DHT22;9853;50.848;4.108;2023-05-07T03:17:23;16.50;99.90
19435;DHT22;9853;50.848;4.108;2023-05-07T03:19:24;16.60;99.90
19435;DHT22;9853;50.848;4.108;2023-05-07T03:21:24;16.70;99.90
19435;DHT22;9853;50.848;4.108;2023-05-07T03:23:26;16.70;99.90
19435;DHT22;9853;50.848;4.108;2023-05-07T03:25:27;16.70;99.90
19435;DHT22;9853;50.848;4.108;2023-05-07T03:27:28;16.70;99.90
19435;DHT22;9853;50.848;4.108;2023-05-07T03:29:29;16.60;99.90
19435;DHT22;9853;50.848;4.108;2023-05-07T03:31:30;16.60;99.90
19435;DHT22;9853;50.848;4.108;2023-05-07T03:33:33;16.60;99.90
19435;DHT22;9853;50.848;4.108;2023-05-07T03:35:35;16.50;99.90
19435;DHT22;9853;50.848;4.108;2023-05-07T03:37:36;16.50;99.90
19435;DHT22;9853;50.848;4.108;2023-05-07T03:39:36;16.50;99.90
19435;DHT22;9853;50.848;4.108;2023-05-07T03:41:38;16.50;99.90
19435;DHT22;9853;50.848;4.108;2023-05-07T03:43:38;16.50;99.90
19435;DHT22;9853;50.848;4.108;2023-05-07T03:45:43;16.50;99.90
19435;DHT22;9853;50.848;4.108;2023-05-07T03:47:49;16.50;99.90
19435;DHT22;9853;50.848;4.108;2023-05-07T03:49:52;16.50;99.90
19435;DHT22;9853;50.848;4.108;2023-05-07T03:51:55;16.50;99.90
19435;DHT22;9853;50.848;4.108;2023-05-07T03:53:56;16.60;99.90
19435;DHT22;9853;50.848;4.108;2023-05-07T03:55:58;16.60;99.90
19435;DHT22;9853;50.848;4.108;2023-05-07T03:57:58;16.50;99.90
19435;DHT22;9853;50.848;4.108;2023-05-07T04:00:02;16.60;99.90
19435;DHT22;9853;50.848;4.108;2023-05-07T04:02:10;16.80;99.90
19435;DHT22;9853;50.848;4.108;2023-05-07T04:04:11;16.90;99.90
19435;DHT22;9853;50.848;4.108;2023-05-07T04:06:11;17.10;99.90
19435;DHT22;9853;50.848;4.108;2023-05-07T04:08:13;17.00;99.90
19435;DHT22;9853;50.848;4.108;2023-05-07T04:10:18;16.90;99.90
19435;DHT22;9853;50.848;4.108;2023-05-07T04:12:21;16.80;99.90
19435;DHT22;9853;50.848;4.108;2023-05-07T04:14:22;16.70;99.90
19435;DHT22;9853;50.848;4.108;2023-05-07T04:16:23;16.70;99.90
19435;DHT22;9853;50.848;4.108;2023-05-07T04:18:24;16.60;99.90
19435;DHT22;9853;50.848;4.108;2023-05-07T04:20:25;16.60;99.90
19435;DHT22;9853;50.848;4.108;2023-05-07T04:22:33;16.60;99.90
19435;DHT22;9853;50.848;4.108;2023-05-07T04:24:35;16.50;99.90
19435;DHT22;9853;50.848;4.108;2023-05-07T04:26:38;16.60;99.90
19435;DHT22;9853;50.848;4.108;2023-05-07T04:28:39;16.60;99.90
19435;DHT22;9853;50.848;4.108;2023-05-07T04:30:41;16.60;99.90
19435;DHT22;9853;50.848;4.108;2023-05-07T04:32:42;16.70;99.90
19435;DHT22;9853;50.848;4.108;2023-05-07T04:34:45;16.70;99.90
19435;DHT22;9853;50.848;4.108;2023-05-07T04:36:47;16.80;99.90
19435;DHT22;9853;50.848;4.108;2023-05-07T04:38:48;16.80;99.90
19435;DHT22;9853;50.848;4.108;2023-05-07T04:40:51;17.00;99.90
19435;DHT22;9853;50.848;4.108;2023-05-07T04:43:03;17.10;99.90
19435;DHT22;9853;50.848;4.108;2023-05-07T04:45:08;17.10;99.90
19435;DHT22;9853;50.848;4.108;2023-05-07T04:47:09;17.10;99.90
19435;DHT22;9853;50.848;4.108;2023-05-07T04:49:10;17.00;99.90
19435;DHT22;9853;50.848;4.108;2023-05-07T04:51:12;16.90;99.90
19435;DHT22;9853;50.848;4.108;2023-05-07T04:53:13;16.80;99.90
19435;DHT22;9853;50.848;4.108;2023-05-07T04:55:13;16.80;99.90
19435;DHT22;9853;50.848;4.108;2023-05-07T04:57:16;16.80;99.90
19435;DHT22;9853;50.848;4.108;2023-05-07T04:59:18;16.60;99.90
19435;DHT22;9853;50.848;4.108;2023-05-07T05:01:19;16.60;99.90
19435;DHT22;9853;50.848;4.108;2023-05-07T05:03:20;16.70;99.90
19435;DHT22;9853;50.848;4.108;2023-05-07T05:05:20;16.70;99.90
19435;DHT22;9853;50.848;4.108;2023-05-07T05:07:24;16.80;99.90
19435;DHT22;9853;50.848;4.108;2023-05-07T05:09:26;16.80;99.90
19435;DHT22;9853;50.848;4.108;2023-05-07T05:11:26;17.00;99.90
19435;DHT22;9853;50.848;4.108;2023-05-07T05:13:28;17.20;99.90
19435;DHT22;9853;50.848;4.108;2023-05-07T05:15:29;17.30;99.90
19435;DHT22;9853;50.848;4.108;2023-05-07T05:17:31;17.40;99.90
19435;DHT22;9853;50.848;4.108;2023-05-07T05:19:32;17.40;99.90
19435;DHT22;9853;50.848;4.108;2023-05-07T05:21:33;17.50;99.90
19435;DHT22;9853;50.848;4.108;2023-05-07T05:23:39;17.50;99.90
19435;DHT22;9853;50.848;4.108;2023-05-07T05:25:40;17.60;99.90
19435;DHT22;9853;50.848;4.108;2023-05-07T05:27:43;17.60;99.90
19435;DHT22;9853;50.848;4.108;2023-05-07T05:29:45;17.60;99.90
19435;DHT22;9853;50.848;4.108;2023-05-07T05:31:45;17.60;99.90
19435;DHT22;9853;50.848;4.108;2023-05-07T05:33:46;17.40;99.90
19435;DHT22;9853;50.848;4.108;2023-05-07T05:35:49;17.30;99.90
19435;DHT22;9853;50.848;4.108;2023-05-07T05:37:50;17.20;99.90
19435;DHT22;9853;50.848;4.108;2023-05-07T05:39:52;17.10;99.90
19435;DHT22;9853;50.848;4.108;2023-05-07T05:41:55;17.00;99.90
19435;DHT22;9853;50.848;4.108;2023-05-07T05:43:56;17.00;99.90
19435;DHT22;9853;50.848;4.108;2023-05-07T05:45:57;17.00;99.90
19435;DHT22;9853;50.848;4.108;2023-05-07T05:47:58;17.00;99.90
19435;DHT22;9853;50.848;4.108;2023-05-07T05:49:59;17.10;99.90
19435;DHT22;9853;50.848;4.108;2023-05-07T05:52:00;17.10;99.90
19435;DHT22;9853;50.848;4.108;2023-05-07T05:54:02;17.10;99.90
19435;DHT22;9853;50.848;4.108;2023-05-07T05:56:03;17.10;99.90
19435;DHT22;9853;50.848;4.108;2023-05-07T05:58:06;17.10;99.90
19435;DHT22;9853;50.848;4.108;2023-05-07T06:00:10;17.20;99.90
19435;DHT22;9853;50.848;4.108;2023-05-07T06:02:19;17.20;99.90
19435;DHT22;9853;50.848;4.108;2023-05-07T06:04:20;17.10;99.90
19435;DHT22;9853;50.848;4.108;2023-05-07T06:06:21;17.10;99.90
19435;DHT22;9853;50.848;4.108;2023-05-07T06:08:22;17.20;99.90
19435;DHT22;9853;50.848;4.108;2023-05-07T06:10:23;17.20;99.90
19435;DHT22;9853;50.848;4.108;2023-05-07T06:12:24;17.20;99.90
19435;DHT22;9853;50.848;4.108;2023-05-07T06:14:25;17.20;99.90
19435;DHT22;9853;50.848;4.108;2023-05-07T06:16:27;17.20;99.90
19435;DHT22;9853;50.848;4.108;2023-05-07T06:18:28;17.20;99.90
19435;DHT22;9853;50.848;4.108;2023-05-07T06:20:29;17.30;99.90
19435;DHT22;9853;50.848;4.108;2023-05-07T06:22:31;17.30;99.90
19435;DHT22;9853;50.848;4.108;2023-05-07T06:24:31;17.20;99.90
19435;DHT22;9853;50.848;4.108;2023-05-07T06:26:32;17.10;99.90
19435;DHT22;9853;50.848;4.108;2023-05-07T06:28:33;17.20;99.90
19435;DHT22;9853;50.848;4.108;2023-05-07T06:30:39;17.20;99.90
19435;DHT22;9853;50.848;4.108;2023-05-07T06:32:41;17.30;99.90
19435;DHT22;9853;50.848;4.108;2023-05-07T06:34:42;17.40;99.90
19435;DHT22;9853;50.848;4.108;2023-05-07T06:36:43;17.30;99.90
19435;DHT22;9853;50.848;4.108;2023-05-07T06:39:00;17.30;99.90
19435;DHT22;9853;50.848;4.108;2023-05-07T06:41:01;17.20;99.90
19435;DHT22;9853;50.848;4.108;2023-05-07T06:43:02;17.30;99.90
19435;DHT22;9853;50.848;4.108;2023-05-07T06:45:10;17.30;99.90
19435;DHT22;9853;50.848;4.108;2023-05-07T06:47:11;17.30;99.90
19435;DHT22;9853;50.848;4.108;2023-05-07T06:49:14;17.40;99.90
19435;DHT22;9853;50.848;4.108;2023-05-07T06:51:15;17.40;99.90
19435;DHT22;9853;50.848;4.108;2023-05-07T06:53:16;17.40;99.90
19435;DHT22;9853;50.848;4.108;2023-05-07T06:55:17;17.30;99.90
19435;DHT22;9853;50.848;4.108;2023-05-07T06:57:18;17.40;99.90
19435;DHT22;9853;50.848;4.108;2023-05-07T06:59:19;17.40;99.90
19435;DHT22;9853;50.848;4.108;2023-05-07T07:01:20;17.50;99.90
19435;DHT22;9853;50.848;4.108;2023-05-07T07:03:20;17.50;99.90
19435;DHT22;9853;50.848;4.108;2023-05-07T07:05:22;17.60;99.90
19435;DHT22;9853;50.848;4.108;2023-05-07T07:07:23;17.60;99.90
19435;DHT22;9853;50.848;4.108;2023-05-07T07:09:26;17.50;99.90
19435;DHT22;9853;50.848;4.108;2023-05-07T07:11:28;17.50;99.90
19435;DHT22;9853;50.848;4.108;2023-05-07T07:13:29;17.50;99.90
19435;DHT22;9853;50.848;4.108;2023-05-07T07:15:30;17.50;99.90
19435;DHT22;9853;50.848;4.108;2023-05-07T07:17:31;17.60;99.90
19435;DHT22;9853;50.848;4.108;2023-05-07T07:19:38;17.70;99.90
19435;DHT22;9853;50.848;4.108;2023-05-07T07:21:40;17.80;99.90
19435;DHT22;9853;50.848;4.108;2023-05-07T07:23:41;17.90;99.90
19435;DHT22;9853;50.848;4.108;2023-05-07T07:25:42;17.70;99.90
19435;DHT22;9853;50.848;4.108;2023-05-07T07:27:44;17.90;99.90
19435;DHT22;9853;50.848;4.108;2023-05-07T07:29:46;17.90;99.90
19435;DHT22;9853;50.848;4.108;2023-05-07T07:31:48;17.90;99.90
19435;DHT22;9853;50.848;4.108;2023-05-07T07:33:50;17.90;99.90
19435;DHT22;9853;50.848;4.108;2023-05-07T07:35:52;18.00;99.90
19435;DHT22;9853;50.848;4.108;2023-05-07T07:37:52;18.00;99.90
19435;DHT22;9853;50.848;4.108;2023-05-07T07:39:53;18.10;99.90
19435;DHT22;9853;50.848;4.108;2023-05-07T07:41:55;18.10;99.90
19435;DHT22;9853;50.848;4.108;2023-05-07T07:43:56;18.10;99.90
19435;DHT22;9853;50.848;4.108;2023-05-07T07:45:57;18.20;99.90
19435;DHT22;9853;50.848;4.108;2023-05-07T07:47:58;18.40;99.90
19435;DHT22;9853;50.848;4.108;2023-05-07T07:49:59;18.30;99.90
19435;DHT22;9853;50.848;4.108;2023-05-07T07:52:00;18.40;99.90
19435;DHT22;9853;50.848;4.108;2023-05-07T07:54:02;18.40;99.90
19435;DHT22;9853;50.848;4.108;2023-05-07T07:56:05;18.40;99.90
19435;DHT22;9853;50.848;4.108;2023-05-07T07:58:08;18.50;99.90
19435;DHT22;9853;50.848;4.108;2023-05-07T08:00:09;18.40;99.90
19435;DHT22;9853;50.848;4.108;2023-05-07T08:02:17;18.40;99.90
19435;DHT22;9853;50.848;4.108;2023-05-07T08:04:18;18.50;99.90
19435;DHT22;9853;50.848;4.108;2023-05-07T08:06:19;18.60;99.90
19435;DHT22;9853;50.848;4.108;2023-05-07T08:08:20;18.50;99.90
19435;DHT22;9853;50.848;4.108;2023-05-07T08:10:22;18.60;99.90
19435;DHT22;9853;50.848;4.108;2023-05-07T08:12:27;18.70;99.90
19435;DHT22;9853;50.848;4.108;2023-05-07T08:14:28;18.80;99.90
19435;DHT22;9853;50.848;4.108;2023-05-07T08:16:29;18.80;99.90
19435;DHT22;9853;50.848;4.108;2023-05-07T08:18:30;18.70;99.90
19435;DHT22;9853;50.848;4.108;2023-05-07T08:20:34;18.70;99.90
19435;DHT22;9853;50.848;4.108;2023-05-07T08:22:40;18.80;99.90
19435;DHT22;9853;50.848;4.108;2023-05-07T08:24:41;18.90;99.90
19435;DHT22;9853;50.848;4.108;2023-05-07T08:26:45;18.90;99.90
19435;DHT22;9853;50.848;4.108;2023-05-07T08:28:47;18.90;99.90
19435;DHT22;9853;50.848;4.108;2023-05-07T08:30:47;18.90;99.90
19435;DHT22;9853;50.848;4.108;2023-05-07T08:32:48;19.00;99.90
19435;DHT22;9853;50.848;4.108;2023-05-07T08:34:49;19.00;99.90
19435;DHT22;9853;50.848;4.108;2023-05-07T08:36:50;19.00;99.90
19435;DHT22;9853;50.848;4.108;2023-05-07T08:38:54;18.90;99.90
19435;DHT22;9853;50.848;4.108;2023-05-07T08:40:55;18.90;99.90
19435;DHT22;9853;50.848;4.108;2023-05-07T08:42:57;18.80;99.90
19435;DHT22;9853;50.848;4.108;2023-05-07T08:44:59;18.90;99.90
19435;DHT22;9853;50.848;4.108;2023-05-07T08:47:06;18.90;99.90
19435;DHT22;9853;50.848;4.108;2023-05-07T08:49:08;18.80;99.90
19435;DHT22;9853;50.848;4.108;2023-05-07T08:51:15;18.80;99.90
19435;DHT22;9853;50.848;4.108;2023-05-07T08:53:17;18.80;99.90
19435;DHT22;9853;50.848;4.108;2023-05-07T08:55:18;18.90;99.90
19435;DHT22;9853;50.848;4.108;2023-05-07T08:57:20;18.90;99.90
19435;DHT22;9853;50.848;4.108;2023-05-07T08:59:22;18.80;99.90
19435;DHT22;9853;50.848;4.108;2023-05-07T09:01:23;18.90;99.90
19435;DHT22;9853;50.848;4.108;2023-05-07T09:03:26;19.00;99.90
19435;DHT22;9853;50.848;4.108;2023-05-07T09:05:29;19.10;99.90
19435;DHT22;9853;50.848;4.108;2023-05-07T09:07:30;19.20;99.90
19435;DHT22;9853;50.848;4.108;2023-05-07T09:09:32;19.20;99.90
19435;DHT22;9853;50.848;4.108;2023-05-07T09:11:34;19.40;99.90
19435;DHT22;9853;50.848;4.108;2023-05-07T09:13:37;19.40;99.90
19435;DHT22;9853;50.848;4.108;2023-05-07T09:15:38;19.50;99.90
19435;DHT22;9853;50.848;4.108;2023-05-07T09:17:39;19.50;99.90
19435;DHT22;9853;50.848;4.108;2023-05-07T09:19:46;19.40;99.90
19435;DHT22;9853;50.848;4.108;2023-05-07T09:21:49;19.40;99.90
19435;DHT22;9853;50.848;4.108;2023-05-07T09:23:51;19.50;99.90
19435;DHT22;9853;50.848;4.108;2023-05-07T09:26:00;19.60;99.90
19435;DHT22;9853;50.848;4.108;2023-05-07T09:28:04;19.70;99.90
19435;DHT22;9853;50.848;4.108;2023-05-07T09:30:08;19.80;99.90
19435;DHT22;9853;50.848;4.108;2023-05-07T09:32:10;19.70;99.90
19435;DHT22;9853;50.848;4.108;2023-05-07T09:34:11;19.80;99.90
19435;DHT22;9853;50.848;4.108;2023-05-07T09:36:15;20.00;99.90
19435;DHT22;9853;50.848;4.108;2023-05-07T09:38:19;20.10;99.90
19435;DHT22;9853;50.848;4.108;2023-05-07T09:40:24;20.10;99.90
19435;DHT22;9853;50.848;4.108;2023-05-07T09:42:27;20.10;99.90
19435;DHT22;9853;50.848;4.108;2023-05-07T09:44:32;20.10;99.90
19435;DHT22;9853;50.848;4.108;2023-05-07T09:46:34;20.10;99.90
19435;DHT22;9853;50.848;4.108;2023-05-07T09:48:43;20.00;99.90
19435;DHT22;9853;50.848;4.108;2023-05-07T09:50:48;20.00;99.90
19435;DHT22;9853;50.848;4.108;2023-05-07T09:52:52;20.00;99.90
19435;DHT22;9853;50.848;4.108;2023-05-07T09:54:53;20.10;99.90
19435;DHT22;9853;50.848;4.108;2023-05-07T09:56:58;20.00;99.90
19435;DHT22;9853;50.848;4.108;2023-05-07T09:59:03;19.90;99.90
19435;DHT22;9853;50.848;4.108;2023-05-07T10:01:06;19.60;99.90
19435;DHT22;9853;50.848;4.108;2023-05-07T10:03:08;19.60;99.90
19435;DHT22;9853;50.848;4.108;2023-05-07T10:05:21;19.50;99.90
19435;DHT22;9853;50.848;4.108;2023-05-07T10:07:24;19.60;99.90
19435;DHT22;9853;50.848;4.108;2023-05-07T10:09:30;19.70;99.90
19435;DHT22;9853;50.848;4.108;2023-05-07T10:11:35;19.70;99.90
19435;DHT22;9853;50.848;4.108;2023-05-07T10:13:37;19.70;99.90
19435;DHT22;9853;50.848;4.108;2023-05-07T10:15:40;19.70;99.90
19435;DHT22;9853;50.848;4.108;2023-05-07T10:17:42;19.70;99.90
19435;DHT22;9853;50.848;4.108;2023-05-07T10:19:44;19.60;99.90
19435;DHT22;9853;50.848;4.108;2023-05-07T10:21:56;19.70;99.90
19435;DHT22;9853;50.848;4.108;2023-05-07T10:24:05;19.70;99.90
19435;DHT22;9853;50.848;4.108;2023-05-07T10:26:14;19.90;99.90
19435;DHT22;9853;50.848;4.108;2023-05-07T10:28:21;20.00;99.90
19435;DHT22;9853;50.848;4.108;2023-05-07T10:32:48;19.80;99.90
19435;DHT22;9853;50.848;4.108;2023-05-07T10:35:01;20.00;99.90
19435;DHT22;9853;50.848;4.108;2023-05-07T10:37:03;20.00;99.90
19435;DHT22;9853;50.848;4.108;2023-05-07T10:39:06;20.00;99.90
19435;DHT22;9853;50.848;4.108;2023-05-07T10:41:15;20.00;99.90
19435;DHT22;9853;50.848;4.108;2023-05-07T10:43:37;19.90;99.90
19435;DHT22;9853;50.848;4.108;2023-05-07T10:45:43;20.00;99.90
19435;DHT22;9853;50.848;4.108;2023-05-07T10:48:14;19.90;99.90
19435;DHT22;9853;50.848;4.108;2023-05-07T10:50:24;19.70;99.90
19435;DHT22;9853;50.848;4.108;2023-05-07T10:52:38;19.70;99.90
19435;DHT22;9853;50.848;4.108;2023-05-07T10:54:45;19.90;99.90
19435;DHT22;9853;50.848;4.108;2023-05-07T10:56:48;19.90;99.90
19435;DHT22;9853;50.848;4.108;2023-05-07T10:58:55;20.00;99.90
19435;DHT22;9853;50.848;4.108;2023-05-07T11:01:10;20.20;99.90
19435;DHT22;9853;50.848;4.108;2023-05-07T11:03:16;20.20;99.90
19435;DHT22;9853;50.848;4.108;2023-05-07T11:05:23;20.30;99.90
19435;DHT22;9853;50.848;4.108;2023-05-07T11:07:39;20.40;99.90
19435;DHT22;9853;50.848;4.108;2023-05-07T11:12:07;20.30;99.90
19435;DHT22;9853;50.848;4.108;2023-05-07T11:14:43;20.20;99.90
19435;DHT22;9853;50.848;4.108;2023-05-07T11:17:03;20.50;99.90
19435;DHT22;9853;50.848;4.108;2023-05-07T11:19:05;20.70;99.90
19435;DHT22;9853;50.848;4.108;2023-05-07T11:21:12;20.70;99.90
19435;DHT22;9853;50.848;4.108;2023-05-07T11:25:45;20.90;99.90
19435;DHT22;9853;50.848;4.108;2023-05-07T11:27:52;20.80;99.90
19435;DHT22;9853;50.848;4.108;2023-05-07T11:29:53;21.00;99.90
19435;DHT22;9853;50.848;4.108;2023-05-07T11:31:57;21.30;99.90
19435;DHT22;9853;50.848;4.108;2023-05-07T11:34:09;21.60;99.90
19435;DHT22;9853;50.848;4.108;2023-05-07T11:36:11;21.80;99.90
19435;DHT22;9853;50.848;4.108;2023-05-07T11:38:35;21.90;99.90
19435;DHT22;9853;50.848;4.108;2023-05-07T11:40:58;21.90;99.90
19435;DHT22;9853;50.848;4.108;2023-05-07T11:43:12;22.00;99.90
19435;DHT22;9853;50.848;4.108;2023-05-07T11:45:25;22.00;99.90
19435;DHT22;9853;50.848;4.108;2023-05-07T11:47:26;22.00;99.90
19435;DHT22;9853;50.848;4.108;2023-05-07T11:49:30;21.90;99.90
19435;DHT22;9853;50.848;4.108;2023-05-07T11:51:31;21.60;99.90
19435;DHT22;9853;50.848;4.108;2023-05-07T11:53:47;21.90;99.90
19435;DHT22;9853;50.848;4.108;2023-05-07T11:55:48;22.10;99.90
19435;DHT22;9853;50.848;4.108;2023-05-07T11:57:55;22.10;99.90
19435;DHT22;9853;50.848;4.108;2023-05-07T11:59:58;22.30;99.90
19435;DHT22;9853;50.848;4.108;2023-05-07T12:01:59;22.30;99.90
19435;DHT22;9853;50.848;4.108;2023-05-07T12:04:03;22.40;99.90
19435;DHT22;9853;50.848;4.108;2023-05-07T12:06:08;22.30;99.90
19435;DHT22;9853;50.848;4.108;2023-05-07T12:08:19;22.30;99.90
19435;DHT22;9853;50.848;4.108;2023-05-07T12:10:23;22.30;99.90
19435;DHT22;9853;50.848;4.108;2023-05-07T12:12:25;22.10;99.90
19435;DHT22;9853;50.848;4.108;2023-05-07T12:14:29;22.10;99.90
19435;DHT22;9853;50.848;4.108;2023-05-07T12:16:31;21.80;99.90
19435;DHT22;9853;50.848;4.108;2023-05-07T12:18:33;21.70;99.90
19435;DHT22;9853;50.848;4.108;2023-05-07T12:20:43;21.90;99.90
19435;DHT22;9853;50.848;4.108;2023-05-07T12:22:46;21.90;99.90
19435;DHT22;9853;50.848;4.108;2023-05-07T12:24:58;22.10;99.90
19435;DHT22;9853;50.848;4.108;2023-05-07T12:27:09;22.20;99.90
19435;DHT22;9853;50.848;4.108;2023-05-07T12:29:10;22.00;99.90
19435;DHT22;9853;50.848;4.108;2023-05-07T12:31:11;21.90;99.90
19435;DHT22;9853;50.848;4.108;2023-05-07T12:33:25;22.00;99.90
19435;DHT22;9853;50.848;4.108;2023-05-07T12:35:30;21.90;99.90
19435;DHT22;9853;50.848;4.108;2023-05-07T12:37:32;22.00;99.90
19435;DHT22;9853;50.848;4.108;2023-05-07T12:39:34;22.20;99.90
19435;DHT22;9853;50.848;4.108;2023-05-07T12:41:57;21.90;99.90
19435;DHT22;9853;50.848;4.108;2023-05-07T12:44:04;22.20;99.90
19435;DHT22;9853;50.848;4.108;2023-05-07T12:46:11;22.30;99.90
19435;DHT22;9853;50.848;4.108;2023-05-07T12:48:14;22.00;99.90
19435;DHT22;9853;50.848;4.108;2023-05-07T12:50:34;22.10;99.90
19435;DHT22;9853;50.848;4.108;2023-05-07T12:52:38;22.10;99.90
19435;DHT22;9853;50.848;4.108;2023-05-07T12:54:41;22.20;99.90
19435;DHT22;9853;50.848;4.108;2023-05-07T12:56:45;22.20;99.90
19435;DHT22;9853;50.848;4.108;2023-05-07T12:58:48;22.10;99.90
19435;DHT22;9853;50.848;4.108;2023-05-07T13:00:50;22.10;99.90
19435;DHT22;9853;50.848;4.108;2023-05-07T13:02:54;22.10;99.90
19435;DHT22;9853;50.848;4.108;2023-05-07T13:04:56;21.90;99.90
19435;DHT22;9853;50.848;4.108;2023-05-07T13:06:59;21.90;99.90
19435;DHT22;9853;50.848;4.108;2023-05-07T13:08:59;21.90;99.90
19435;DHT22;9853;50.848;4.108;2023-05-07T13:11:10;21.90;99.90
19435;DHT22;9853;50.848;4.108;2023-05-07T13:13:14;22.00;99.90
19435;DHT22;9853;50.848;4.108;2023-05-07T13:15:19;22.10;99.90
19435;DHT22;9853;50.848;4.108;2023-05-07T13:17:28;22.00;99.90
19435;DHT22;9853;50.848;4.108;2023-05-07T13:19:33;21.80;99.90